Time;durP1;ratioP1;P1;durP2;ratioP2;P2;SDS_P1;SDS_P2;PMS_P1;PMS_P2;Temp;Humidity;BMP_temperature;BMP_pressure;BME280_temperature;BME280_humidity;BME280_pressure;Samples;Min_cycle;Max_cycle;Signal;HPM_P1;HPM_P2
2023/03/12 00:02:22;;;;;;;8.90;6.00;;;;;;;-128.00;-1.00;-1.00;97934;295;1003843;-34
2023/03/12 00:04:48;;;;;;;9.00;5.40;;;;;;;-128.00;-1.00;-1.00;97950;295;1003887;-29
2023/03/12 00:07:14;;;;;;;13.00;7.00;;;;;;;-128.00;-1.00;-1.00;97815;295;1003291;-32
2023/03/12 00:09:39;;;;;;;8.60;4.20;;;;;;;-128.00;-1.00;-1.00;97820;295;1005489;-35
2023/03/12 00:12:06;;;;;;;12.80;8.10;;;;;;;-128.00;-1.00;-1.00;97777;295;1003270;-28
2023/03/12 00:14:32;;;;;;;9.50;6.90;;;;;;;-128.00;-1.00;-1.00;97809;295;1003209;-35
2023/03/12 00:16:58;;;;;;;9.70;4.60;;;;;;;-128.00;-1.00;-1.00;97937;295;1002969;-28
2023/03/12 00:19:24;;;;;;;14.00;7.80;;;;;;;-128.00;-1.00;-1.00;97948;295;1003258;-29
2023/03/12 00:21:49;;;;;;;18.60;6.20;;;;;;;-128.00;-1.00;-1.00;97868;295;1003727;-29
2023/03/12 00:24:15;;;;;;;6.10;4.50;;;;;;;-128.00;-1.00;-1.00;97839;285;1003115;-33
2023/03/12 00:26:41;;;;;;;12.10;8.00;;;;;;;-128.00;-1.00;-1.00;97951;295;1003925;-30
2023/03/12 00:29:07;;;;;;;19.80;6.70;;;;;;;-128.00;-1.00;-1.00;98061;295;1003382;-32
2023/03/12 00:31:32;;;;;;;12.00;5.30;;;;;;;-128.00;-1.00;-1.00;97985;295;1003607;-32
2023/03/12 00:33:59;;;;;;;14.30;8.40;;;;;;;-128.00;-1.00;-1.00;97890;295;1003662;-29
2023/03/12 00:36:26;;;;;;;12.60;9.50;;;;;;;-128.00;-1.00;-1.00;97871;295;1004678;-30
2023/03/12 00:38:52;;;;;;;9.00;5.70;;;;;;;-128.00;-1.00;-1.00;98001;295;1003991;-32
2023/03/12 00:41:21;;;;;;;5.80;3.40;;;;;;;-128.00;-1.00;-1.00;97860;295;1005925;-32
2023/03/12 00:43:47;;;;;;;10.60;6.70;;;;;;;-128.00;-1.00;-1.00;97904;295;1004182;-34
2023/03/12 00:46:13;;;;;;;6.90;4.60;;;;;;;-128.00;-1.00;-1.00;97853;294;1004011;-28
2023/03/12 00:48:40;;;;;;;8.10;5.70;;;;;;;-128.00;-1.00;-1.00;97851;295;1003686;-30
2023/03/12 00:51:05;;;;;;;10.30;5.00;;;;;;;-128.00;-1.00;-1.00;97928;295;1002689;-30
2023/03/12 00:53:31;;;;;;;9.60;4.80;;;;;;;-128.00;-1.00;-1.00;98030;295;1004794;-32
2023/03/12 00:55:56;;;;;;;16.70;8.20;;;;;;;-128.00;-1.00;-1.00;97886;295;1004449;-27
2023/03/12 00:58:22;;;;;;;12.50;5.60;;;;;;;-128.00;-1.00;-1.00;97846;295;1003692;-38
2023/03/12 01:00:48;;;;;;;15.40;7.50;;;;;;;-128.00;-1.00;-1.00;97953;295;1003231;-32
2023/03/12 01:03:13;;;;;;;7.90;4.90;;;;;;;-128.00;-1.00;-1.00;97838;295;1003668;-33
2023/03/12 01:05:39;;;;;;;10.50;5.70;;;;;;;-128.00;-1.00;-1.00;97866;295;1004990;-35
2023/03/12 01:08:06;;;;;;;13.60;8.20;;;;;;;-128.00;-1.00;-1.00;98041;295;1004557;-29
2023/03/12 01:10:32;;;;;;;20.00;8.60;;;;;;;-128.00;-1.00;-1.00;97887;295;1004175;-29
2023/03/12 01:12:58;;;;;;;14.40;7.50;;;;;;;-128.00;-1.00;-1.00;97893;295;1003509;-33
2023/03/12 01:15:24;;;;;;;15.40;6.90;;;;;;;-128.00;-1.00;-1.00;97957;295;1003692;-33
2023/03/12 01:17:50;;;;;;;22.30;8.50;;;;;;;-128.00;-1.00;-1.00;97840;295;1004127;-30
2023/03/12 01:20:15;;;;;;;8.50;4.80;;;;;;;-128.00;-1.00;-1.00;98074;295;1003155;-29
2023/03/12 01:22:42;;;;;;;19.50;6.50;;;;;;;-128.00;-1.00;-1.00;97806;297;1003291;-28
2023/03/12 01:25:09;;;;;;;11.60;6.60;;;;;;;-128.00;-1.00;-1.00;98113;295;1003724;-33
2023/03/12 01:27:34;;;;;;;12.00;6.00;;;;;;;-128.00;-1.00;-1.00;97844;295;1002757;-33
2023/03/12 01:30:00;;;;;;;7.40;5.10;;;;;;;-128.00;-1.00;-1.00;97943;294;1004321;-33
2023/03/12 01:32:25;;;;;;;12.40;6.10;;;;;;;-128.00;-1.00;-1.00;97897;295;1003428;-33
2023/03/12 01:34:51;;;;;;;12.10;6.40;;;;;;;-128.00;-1.00;-1.00;98052;294;1003620;-33
2023/03/12 01:37:17;;;;;;;12.80;6.00;;;;;;;-128.00;-1.00;-1.00;97905;295;1003533;-34
2023/03/12 01:39:42;;;;;;;6.20;3.70;;;;;;;-128.00;-1.00;-1.00;98082;295;1003518;-30
2023/03/12 01:42:08;;;;;;;8.10;5.00;;;;;;;-128.00;-1.00;-1.00;97826;295;1004116;-32
2023/03/12 01:44:40;;;;;;;5.10;2.90;;;;;;;-128.00;-1.00;-1.00;97926;295;1003344;-31
2023/03/12 01:47:06;;;;;;;4.90;3.70;;;;;;;-128.00;-1.00;-1.00;97960;295;1002910;-32
2023/03/12 01:49:32;;;;;;;7.70;5.10;;;;;;;-128.00;-1.00;-1.00;97829;297;1002737;-29
2023/03/12 01:52:06;;;;;;;9.80;4.60;;;;;;;-128.00;-1.00;-1.00;97843;295;1002993;-32
2023/03/12 01:54:38;;;;;;;4.70;3.90;;;;;;;-128.00;-1.00;-1.00;97982;295;1003739;-27
2023/03/12 01:57:05;;;;;;;11.60;5.60;;;;;;;-128.00;-1.00;-1.00;97835;297;1003166;-29
2023/03/12 01:59:41;;;;;;;5.40;3.80;;;;;;;-128.00;-1.00;-1.00;98005;295;1004390;-33
2023/03/12 02:02:07;;;;;;;5.30;3.70;;;;;;;-128.00;-1.00;-1.00;97924;295;1004616;-28
2023/03/12 02:04:32;;;;;;;5.00;3.20;;;;;;;-128.00;-1.00;-1.00;97732;294;1003378;-30
2023/03/12 02:07:09;;;;;;;6.20;3.40;;;;;;;-128.00;-1.00;-1.00;97846;296;1003184;-29
2023/03/12 02:09:40;;;;;;;4.90;2.60;;;;;;;-128.00;-1.00;-1.00;97864;295;1003678;-37
2023/03/12 02:12:07;;;;;;;9.50;4.70;;;;;;;-128.00;-1.00;-1.00;97885;295;1003742;-31
2023/03/12 02:14:33;;;;;;;9.60;2.50;;;;;;;-128.00;-1.00;-1.00;97849;295;1003662;-33
2023/03/12 02:16:59;;;;;;;8.30;3.80;;;;;;;-128.00;-1.00;-1.00;97960;295;1003718;-32
2023/03/12 02:19:48;;;;;;;10.50;4.20;;;;;;;-128.00;-1.00;-1.00;97886;295;1005520;-30
2023/03/12 02:22:14;;;;;;;3.20;2.90;;;;;;;-128.00;-1.00;-1.00;97822;295;1003297;-30
2023/03/12 02:25:02;;;;;;;7.20;4.90;;;;;;;-128.00;-1.00;-1.00;97996;295;1002956;-33
2023/03/12 02:27:30;;;;;;;9.90;3.30;;;;;;;-128.00;-1.00;-1.00;97887;295;1004276;-32
2023/03/12 02:29:56;;;;;;;14.10;5.20;;;;;;;-128.00;-1.00;-1.00;98013;295;1003542;-33
2023/03/12 02:32:24;;;;;;;5.10;3.30;;;;;;;-128.00;-1.00;-1.00;97856;294;1003955;-33
2023/03/12 02:34:49;;;;;;;18.30;5.50;;;;;;;-128.00;-1.00;-1.00;97964;295;1002452;-33
2023/03/12 02:37:16;;;;;;;7.30;3.40;;;;;;;-128.00;-1.00;-1.00;97930;295;1003021;-35
2023/03/12 02:39:42;;;;;;;12.40;5.60;;;;;;;-128.00;-1.00;-1.00;97886;287;1003618;-34
2023/03/12 02:42:08;;;;;;;7.50;3.80;;;;;;;-128.00;-1.00;-1.00;97896;285;1003463;-28
2023/03/12 02:44:35;;;;;;;5.90;3.90;;;;;;;-128.00;-1.00;-1.00;98083;295;1003986;-32
2023/03/12 02:47:01;;;;;;;8.50;5.20;;;;;;;-128.00;-1.00;-1.00;97933;295;1003220;-29
2023/03/12 02:49:29;;;;;;;16.60;3.70;;;;;;;-128.00;-1.00;-1.00;98031;295;1003023;-29
2023/03/12 02:51:54;;;;;;;8.00;2.90;;;;;;;-128.00;-1.00;-1.00;97948;295;1003023;-32
2023/03/12 02:54:20;;;;;;;4.90;3.00;;;;;;;-128.00;-1.00;-1.00;97793;295;1004343;-33
2023/03/12 02:56:46;;;;;;;8.20;3.60;;;;;;;-128.00;-1.00;-1.00;97941;295;1003256;-29
2023/03/12 02:59:13;;;;;;;4.90;2.30;;;;;;;-128.00;-1.00;-1.00;97808;295;1003319;-32
2023/03/12 03:01:39;;;;;;;14.30;4.90;;;;;;;-128.00;-1.00;-1.00;97875;295;1004018;-28
2023/03/12 03:04:06;;;;;;;6.20;3.50;;;;;;;-128.00;-1.00;-1.00;97983;295;1003767;-29
2023/03/12 03:06:33;;;;;;;18.80;4.80;;;;;;;-128.00;-1.00;-1.00;97986;295;1003043;-33
2023/03/12 03:08:58;;;;;;;3.10;2.30;;;;;;;-128.00;-1.00;-1.00;98021;294;1003700;-27
2023/03/12 03:11:24;;;;;;;6.60;3.60;;;;;;;-128.00;-1.00;-1.00;97934;295;1004174;-33
2023/03/12 03:13:50;;;;;;;7.30;3.20;;;;;;;-128.00;-1.00;-1.00;97919;295;1003767;-34
2023/03/12 03:16:16;;;;;;;5.40;3.00;;;;;;;-128.00;-1.00;-1.00;97989;295;1003297;-29
2023/03/12 03:18:42;;;;;;;8.00;3.70;;;;;;;-128.00;-1.00;-1.00;98058;295;1003571;-29
2023/03/12 03:21:08;;;;;;;6.20;3.00;;;;;;;-128.00;-1.00;-1.00;97876;295;1004299;-29
2023/03/12 03:23:34;;;;;;;15.10;3.00;;;;;;;-128.00;-1.00;-1.00;97736;298;1002884;-33
2023/03/12 03:26:00;;;;;;;4.40;3.10;;;;;;;-128.00;-1.00;-1.00;98064;295;1004258;-29
2023/03/12 03:28:26;;;;;;;2.90;1.90;;;;;;;-128.00;-1.00;-1.00;97899;295;1003363;-35
2023/03/12 03:30:53;;;;;;;2.10;1.60;;;;;;;-128.00;-1.00;-1.00;97939;295;1002360;-28
2023/03/12 03:33:19;;;;;;;4.70;2.40;;;;;;;-128.00;-1.00;-1.00;97903;295;1005121;-31
2023/03/12 03:35:46;;;;;;;5.10;3.30;;;;;;;-128.00;-1.00;-1.00;97911;295;1003891;-28
2023/03/12 03:38:11;;;;;;;2.00;1.30;;;;;;;-128.00;-1.00;-1.00;97963;295;1002814;-28
2023/03/12 03:40:37;;;;;;;6.20;2.60;;;;;;;-128.00;-1.00;-1.00;98007;295;1002643;-29
2023/03/12 03:43:03;;;;;;;5.00;2.60;;;;;;;-128.00;-1.00;-1.00;97949;295;1002630;-38
2023/03/12 03:45:28;;;;;;;6.60;3.40;;;;;;;-128.00;-1.00;-1.00;97864;295;1004273;-33
2023/03/12 03:47:54;;;;;;;4.80;2.70;;;;;;;-128.00;-1.00;-1.00;98038;287;1004327;-29
2023/03/12 03:50:20;;;;;;;7.10;3.40;;;;;;;-128.00;-1.00;-1.00;97862;295;1004391;-31
2023/03/12 03:52:45;;;;;;;4.60;3.40;;;;;;;-128.00;-1.00;-1.00;97976;295;1004086;-32
2023/03/12 03:55:11;;;;;;;8.40;3.10;;;;;;;-128.00;-1.00;-1.00;97919;283;1004426;-32
2023/03/12 03:57:37;;;;;;;10.40;2.80;;;;;;;-128.00;-1.00;-1.00;97803;295;1002957;-35
2023/03/12 04:00:08;;;;;;;10.20;2.20;;;;;;;-128.00;-1.00;-1.00;97992;295;1003907;-29
2023/03/12 04:02:33;;;;;;;6.20;3.70;;;;;;;-128.00;-1.00;-1.00;97829;295;1003215;-28
2023/03/12 04:05:00;;;;;;;4.70;2.50;;;;;;;-128.00;-1.00;-1.00;97831;295;1004396;-29
2023/03/12 04:07:27;;;;;;;7.90;2.10;;;;;;;-128.00;-1.00;-1.00;97770;287;1003133;-35
2023/03/12 04:09:54;;;;;;;9.10;2.50;;;;;;;-128.00;-1.00;-1.00;97954;295;1003804;-29
2023/03/12 04:12:20;;;;;;;2.20;1.40;;;;;;;-128.00;-1.00;-1.00;97997;295;1004863;-33
2023/03/12 04:14:45;;;;;;;17.50;2.40;;;;;;;-128.00;-1.00;-1.00;97854;295;1003455;-28
2023/03/12 04:17:11;;;;;;;4.20;2.40;;;;;;;-128.00;-1.00;-1.00;97905;295;1003349;-34
2023/03/12 04:19:36;;;;;;;8.00;1.90;;;;;;;-128.00;-1.00;-1.00;98102;295;1003804;-30
2023/03/12 04:22:02;;;;;;;5.80;2.70;;;;;;;-128.00;-1.00;-1.00;97898;295;1004019;-30
2023/03/12 04:24:28;;;;;;;3.80;1.90;;;;;;;-128.00;-1.00;-1.00;97891;295;1004580;-33
2023/03/12 04:26:53;;;;;;;4.80;2.50;;;;;;;-128.00;-1.00;-1.00;97878;295;1003303;-34
2023/03/12 04:29:19;;;;;;;5.30;2.60;;;;;;;-128.00;-1.00;-1.00;98024;295;1003036;-29
2023/03/12 04:31:44;;;;;;;2.70;2.00;;;;;;;-128.00;-1.00;-1.00;97863;295;1003145;-32
2023/03/12 04:34:11;;;;;;;5.30;1.70;;;;;;;-128.00;-1.00;-1.00;97919;295;1004196;-30
2023/03/12 05:14:54;;;;;;;10.90;2.90;;;;;;;-2.73;100.00;98877.94;101110;288;556588;-32
2023/03/12 05:17:20;;;;;;;1.80;1.00;;;;;;;-2.49;100.00;98881.08;100938;298;439827;-28
2023/03/12 05:19:47;;;;;;;5.50;2.70;;;;;;;-2.50;100.00;98884.66;101326;288;22672;-34
2023/03/12 05:22:12;;;;;;;5.90;3.20;;;;;;;-52.68;59.60;59327.65;100046;296;1002986;-34
2023/03/12 05:24:38;;;;;;;4.90;1.80;;;;;;;-128.00;-1.00;-1.00;97875;296;1002812;-34
2023/03/12 05:27:07;;;;;;;1.50;1.00;;;;;;;-128.00;-1.00;-1.00;97910;296;1003339;-35
2023/03/12 05:29:34;;;;;;;2.30;1.00;;;;;;;-128.00;-1.00;-1.00;97852;296;1004102;-34
2023/03/12 05:32:03;;;;;;;0.60;0.40;;;;;;;-128.00;-1.00;-1.00;97874;298;1002919;-30
2023/03/12 05:34:29;;;;;;;2.00;1.00;;;;;;;-128.00;-1.00;-1.00;97896;284;1004391;-34
2023/03/12 05:36:56;;;;;;;2.80;1.80;;;;;;;-128.00;-1.00;-1.00;97813;296;1003309;-34
2023/03/12 05:39:21;;;;;;;3.40;1.30;;;;;;;-128.00;-1.00;-1.00;97918;284;1002977;-31
2023/03/12 05:41:47;;;;;;;12.60;1.50;;;;;;;-128.00;-1.00;-1.00;97939;296;1005005;-29
2023/03/12 05:44:14;;;;;;;2.10;0.90;;;;;;;-128.00;-1.00;-1.00;97884;296;1003273;-35
2023/03/12 05:46:43;;;;;;;3.40;1.30;;;;;;;-128.00;-1.00;-1.00;97875;296;1003569;-32
2023/03/12 05:49:09;;;;;;;4.30;1.70;;;;;;;-128.00;-1.00;-1.00;97920;296;1004313;-29
2023/03/12 05:51:35;;;;;;;2.70;0.90;;;;;;;-128.00;-1.00;-1.00;97919;296;1003447;-29
2023/03/12 05:54:01;;;;;;;2.30;1.20;;;;;;;-128.00;-1.00;-1.00;97865;296;1003758;-29
2023/03/12 05:56:26;;;;;;;1.60;0.70;;;;;;;-128.00;-1.00;-1.00;97898;296;1003803;-31
2023/03/12 05:58:53;;;;;;;1.60;0.40;;;;;;;-128.00;-1.00;-1.00;97793;296;1003626;-29
2023/03/12 06:01:21;;;;;;;12.00;1.30;;;;;;;-128.00;-1.00;-1.00;97789;296;1002546;-33
2023/03/12 06:03:47;;;;;;;3.40;1.30;;;;;;;-128.00;-1.00;-1.00;97940;296;1003608;-29
2023/03/12 06:06:13;;;;;;;2.40;0.80;;;;;;;-128.00;-1.00;-1.00;97880;296;1002915;-29
2023/03/12 06:08:39;;;;;;;3.20;1.20;;;;;;;-128.00;-1.00;-1.00;97884;296;1003070;-31
2023/03/12 06:11:04;;;;;;;6.00;1.80;;;;;;;-128.00;-1.00;-1.00;97822;298;1004813;-33
2023/03/12 06:13:30;;;;;;;5.80;0.90;;;;;;;-128.00;-1.00;-1.00;97952;296;1004319;-31
2023/03/12 06:16:04;;;;;;;3.00;1.20;;;;;;;-128.00;-1.00;-1.00;97979;285;1002943;-28
2023/03/12 06:18:31;;;;;;;3.70;1.10;;;;;;;-128.00;-1.00;-1.00;97886;296;1003207;-33
2023/03/12 06:21:16;;;;;;;3.50;1.40;;;;;;;-128.00;-1.00;-1.00;97836;296;1004156;-33
2023/03/12 06:23:42;;;;;;;4.40;1.10;;;;;;;-128.00;-1.00;-1.00;97933;296;1003674;-33
2023/03/12 06:26:08;;;;;;;1.50;0.50;;;;;;;-128.00;-1.00;-1.00;97906;285;1003761;-29
2023/03/12 06:28:34;;;;;;;1.90;0.80;;;;;;;-128.00;-1.00;-1.00;97844;285;1004431;-30
2023/03/12 06:31:00;;;;;;;3.80;2.10;;;;;;;-128.00;-1.00;-1.00;97929;296;1003690;-30
2023/03/12 06:33:25;;;;;;;8.70;1.00;;;;;;;-128.00;-1.00;-1.00;97818;285;1003310;-29
2023/03/12 06:35:55;;;;;;;2.50;1.70;;;;;;;-128.00;-1.00;-1.00;97736;297;1003600;-31
2023/03/12 06:38:21;;;;;;;1.40;0.60;;;;;;;-128.00;-1.00;-1.00;97872;285;1004886;-33
2023/03/12 06:41:01;;;;;;;4.10;2.20;;;;;;;-128.00;-1.00;-1.00;97860;285;1004262;-33
2023/03/12 06:43:28;;;;;;;2.60;0.90;;;;;;;-128.00;-1.00;-1.00;97799;296;1003457;-28
2023/03/12 06:45:54;;;;;;;2.80;0.90;;;;;;;-128.00;-1.00;-1.00;97883;285;1003234;-31
2023/03/12 06:48:20;;;;;;;6.40;1.00;;;;;;;-128.00;-1.00;-1.00;97913;296;1002999;-30
2023/03/12 06:50:45;;;;;;;1.90;0.90;;;;;;;-128.00;-1.00;-1.00;98002;285;1003390;-30
2023/03/12 06:53:11;;;;;;;8.80;1.60;;;;;;;-128.00;-1.00;-1.00;97781;296;1002702;-34
2023/03/12 06:55:36;;;;;;;3.80;1.10;;;;;;;-128.00;-1.00;-1.00;97862;285;1004802;-29
2023/03/12 06:58:03;;;;;;;3.50;2.20;;;;;;;-128.00;-1.00;-1.00;97936;285;1003574;-31
2023/03/12 07:00:30;;;;;;;1.80;1.00;;;;;;;-128.00;-1.00;-1.00;97994;285;1002997;-33
2023/03/12 07:02:55;;;;;;;3.20;1.40;;;;;;;-128.00;-1.00;-1.00;97877;285;1004400;-29
2023/03/12 07:05:22;;;;;;;4.40;1.10;;;;;;;-128.00;-1.00;-1.00;97890;285;1003996;-31
2023/03/12 07:07:48;;;;;;;5.90;1.80;;;;;;;-128.00;-1.00;-1.00;97932;296;1003578;-30
2023/03/12 07:10:13;;;;;;;0.80;0.60;;;;;;;-128.00;-1.00;-1.00;97880;285;1003177;-33
2023/03/12 07:12:39;;;;;;;4.70;1.30;;;;;;;-128.00;-1.00;-1.00;97795;296;1003790;-31
2023/03/12 07:15:05;;;;;;;4.70;1.20;;;;;;;-128.00;-1.00;-1.00;97954;285;1003902;-31
2023/03/12 07:17:31;;;;;;;5.00;2.30;;;;;;;-128.00;-1.00;-1.00;97866;285;1002719;-34
2023/03/12 07:19:56;;;;;;;2.50;1.00;;;;;;;-128.00;-1.00;-1.00;97843;296;1003265;-34
2023/03/12 07:22:22;;;;;;;2.40;1.50;;;;;;;-128.00;-1.00;-1.00;97882;285;1002721;-29
2023/03/12 07:24:50;;;;;;;3.90;1.60;;;;;;;-128.00;-1.00;-1.00;97952;296;1003345;-30
2023/03/12 07:27:16;;;;;;;1.80;0.80;;;;;;;-128.00;-1.00;-1.00;97889;296;1003195;-30
2023/03/12 07:29:42;;;;;;;3.20;1.20;;;;;;;-128.00;-1.00;-1.00;97846;285;1004511;-31
2023/03/12 07:32:08;;;;;;;3.20;1.20;;;;;;;-128.00;-1.00;-1.00;97688;296;1003107;-29
2023/03/12 07:34:34;;;;;;;1.60;0.90;;;;;;;-128.00;-1.00;-1.00;97878;285;1003890;-30
2023/03/12 07:36:59;;;;;;;3.10;1.30;;;;;;;-128.00;-1.00;-1.00;97894;285;1002958;-33
2023/03/12 07:39:25;;;;;;;16.90;8.20;;;;;;;-128.00;-1.00;-1.00;97926;296;1003780;-33
2023/03/12 07:41:51;;;;;;;0.50;0.40;;;;;;;-128.00;-1.00;-1.00;97879;296;1003746;-30
2023/03/12 07:44:16;;;;;;;4.40;1.70;;;;;;;-128.00;-1.00;-1.00;97879;285;1004380;-30
2023/03/12 07:46:42;;;;;;;2.00;1.20;;;;;;;-128.00;-1.00;-1.00;97840;285;1003446;-33
2023/03/12 07:49:08;;;;;;;2.40;1.10;;;;;;;-128.00;-1.00;-1.00;97791;296;1004169;-35
2023/03/12 07:51:33;;;;;;;3.20;1.50;;;;;;;-128.00;-1.00;-1.00;97742;287;1003292;-30
2023/03/12 07:53:59;;;;;;;3.30;1.10;;;;;;;-128.00;-1.00;-1.00;97869;285;1004041;-29
2023/03/12 07:56:25;;;;;;;6.10;1.90;;;;;;;-128.00;-1.00;-1.00;97813;285;1003607;-29
2023/03/12 07:58:50;;;;;;;16.70;7.80;;;;;;;-128.00;-1.00;-1.00;97862;285;1003016;-33
2023/03/12 08:01:16;;;;;;;2.90;0.70;;;;;;;-128.00;-1.00;-1.00;97852;285;1003774;-35
2023/03/12 08:03:41;;;;;;;8.70;2.40;;;;;;;-128.00;-1.00;-1.00;97768;285;1004425;-34
2023/03/12 08:06:07;;;;;;;18.60;9.40;;;;;;;-128.00;-1.00;-1.00;97758;287;1003228;-33
2023/03/12 08:08:33;;;;;;;15.30;7.10;;;;;;;-128.00;-1.00;-1.00;97924;296;1003973;-30
2023/03/12 08:10:59;;;;;;;11.00;2.20;;;;;;;-128.00;-1.00;-1.00;97899;285;1003110;-31
2023/03/12 08:13:25;;;;;;;8.30;5.50;;;;;;;-128.00;-1.00;-1.00;98024;296;1003787;-34
2023/03/12 08:15:51;;;;;;;4.40;2.20;;;;;;;-128.00;-1.00;-1.00;97831;285;1004249;-29
2023/03/12 08:18:17;;;;;;;1.80;1.00;;;;;;;-128.00;-1.00;-1.00;97885;296;1003679;-34
2023/03/12 08:20:43;;;;;;;4.70;2.30;;;;;;;-128.00;-1.00;-1.00;97933;285;1003906;-34
2023/03/12 08:23:09;;;;;;;3.50;1.40;;;;;;;-128.00;-1.00;-1.00;97852;285;1002908;-30
2023/03/12 08:25:35;;;;;;;9.50;1.60;;;;;;;-128.00;-1.00;-1.00;97834;298;1003964;-35
2023/03/12 08:28:02;;;;;;;9.20;3.40;;;;;;;-128.00;-1.00;-1.00;97987;296;1002942;-31
2023/03/12 08:30:29;;;;;;;10.40;2.50;;;;;;;-128.00;-1.00;-1.00;97899;296;1003127;-29
2023/03/12 08:32:55;;;;;;;5.30;1.70;;;;;;;-128.00;-1.00;-1.00;97752;297;1005091;-33
2023/03/12 08:35:21;;;;;;;5.90;2.60;;;;;;;-128.00;-1.00;-1.00;97787;298;1003924;-31
2023/03/12 08:37:46;;;;;;;3.20;2.30;;;;;;;-128.00;-1.00;-1.00;97842;285;1004850;-36
2023/03/12 08:40:12;;;;;;;2.60;1.20;;;;;;;-128.00;-1.00;-1.00;97724;299;1002542;-33
2023/03/12 08:42:39;;;;;;;2.70;0.90;;;;;;;-128.00;-1.00;-1.00;97917;296;1004739;-32
2023/03/12 08:45:06;;;;;;;6.60;3.00;;;;;;;-128.00;-1.00;-1.00;97918;285;1004854;-31
2023/03/12 08:47:32;;;;;;;8.80;3.00;;;;;;;-128.00;-1.00;-1.00;97860;298;1004713;-29
2023/03/12 08:49:58;;;;;;;2.30;1.10;;;;;;;-128.00;-1.00;-1.00;97828;296;1003374;-33
2023/03/12 08:52:23;;;;;;;1.70;1.00;;;;;;;-128.00;-1.00;-1.00;97980;285;1002949;-34
2023/03/12 08:54:49;;;;;;;6.40;3.00;;;;;;;-128.00;-1.00;-1.00;97815;296;1003037;-33
2023/03/12 08:57:15;;;;;;;2.60;1.90;;;;;;;-128.00;-1.00;-1.00;97956;285;1003405;-31
2023/03/12 08:59:41;;;;;;;2.70;1.60;;;;;;;-128.00;-1.00;-1.00;97909;296;1002786;-32
2023/03/12 09:02:10;;;;;;;10.60;1.20;;;;;;;-128.00;-1.00;-1.00;97835;296;1002883;-33
2023/03/12 09:04:35;;;;;;;3.10;2.30;;;;;;;-128.00;-1.00;-1.00;97909;296;1002987;-36
2023/03/12 09:07:01;;;;;;;6.10;2.30;;;;;;;-128.00;-1.00;-1.00;97886;285;1002973;-31
2023/03/12 09:09:27;;;;;;;12.90;6.60;;;;;;;-128.00;-1.00;-1.00;97903;285;1003035;-33
2023/03/12 09:11:53;;;;;;;3.70;1.40;;;;;;;-128.00;-1.00;-1.00;97783;285;1003190;-34
2023/03/12 09:14:19;;;;;;;6.10;2.40;;;;;;;-128.00;-1.00;-1.00;97822;296;1003247;-30
2023/03/12 09:16:44;;;;;;;6.10;2.10;;;;;;;-128.00;-1.00;-1.00;97890;285;1003638;-30
2023/03/12 09:19:10;;;;;;;15.50;4.60;;;;;;;-128.00;-1.00;-1.00;97910;285;1003955;-33
2023/03/12 09:21:36;;;;;;;6.00;1.40;;;;;;;-128.00;-1.00;-1.00;97977;296;1004342;-34
2023/03/12 09:24:03;;;;;;;5.10;1.90;;;;;;;-128.00;-1.00;-1.00;97769;298;1003033;-33
2023/03/12 09:26:28;;;;;;;3.00;1.10;;;;;;;-128.00;-1.00;-1.00;97965;285;1002402;-29
2023/03/12 09:28:55;;;;;;;13.50;3.00;;;;;;;-128.00;-1.00;-1.00;97770;284;1003016;-32
2023/03/12 09:31:21;;;;;;;3.30;1.10;;;;;;;-128.00;-1.00;-1.00;97870;296;1003152;-34
2023/03/12 09:33:46;;;;;;;4.00;0.90;;;;;;;-128.00;-1.00;-1.00;97876;296;1002968;-31
2023/03/12 09:36:12;;;;;;;3.80;1.40;;;;;;;-128.00;-1.00;-1.00;97904;296;1003018;-31
2023/03/12 09:38:38;;;;;;;1.30;1.00;;;;;;;-128.00;-1.00;-1.00;97825;285;1004146;-33
2023/03/12 09:41:04;;;;;;;1.90;1.30;;;;;;;-128.00;-1.00;-1.00;97879;296;1003859;-30
2023/03/12 09:43:37;;;;;;;1.90;0.80;;;;;;;-128.00;-1.00;-1.00;97712;299;1003688;-33
2023/03/12 09:46:04;;;;;;;2.80;1.50;;;;;;;-128.00;-1.00;-1.00;97820;285;1003091;-29
2023/03/12 09:48:34;;;;;;;2.40;1.30;;;;;;;-128.00;-1.00;-1.00;97860;285;1003520;-29
2023/03/12 09:51:05;;;;;;;2.20;1.20;;;;;;;-128.00;-1.00;-1.00;97918;296;1003432;-31
2023/03/12 09:53:37;;;;;;;7.30;2.50;;;;;;;-128.00;-1.00;-1.00;97805;285;1003641;-33
2023/03/12 09:56:08;;;;;;;34.60;7.70;;;;;;;-128.00;-1.00;-1.00;97973;285;1002753;-29
2023/03/12 09:58:35;;;;;;;39.20;10.60;;;;;;;-128.00;-1.00;-1.00;97987;285;1003989;-33
2023/03/12 10:01:08;;;;;;;10.80;5.90;;;;;;;-128.00;-1.00;-1.00;97905;296;1003328;-28
2023/03/12 10:03:59;;;;;;;4.10;1.70;;;;;;;-128.00;-1.00;-1.00;97833;285;1002815;-28
2023/03/12 10:06:52;;;;;;;3.50;1.40;;;;;;;-128.00;-1.00;-1.00;97858;296;1003000;-29
2023/03/12 10:09:38;;;;;;;3.60;1.60;;;;;;;-128.00;-1.00;-1.00;97850;285;1003283;-31
2023/03/12 10:12:19;;;;;;;2.20;1.00;;;;;;;-128.00;-1.00;-1.00;97764;296;1004137;-29
2023/03/12 10:14:53;;;;;;;7.00;1.40;;;;;;;-128.00;-1.00;-1.00;97857;285;1002839;-34
2023/03/12 10:17:37;;;;;;;10.10;2.80;;;;;;;-128.00;-1.00;-1.00;97768;296;1004311;-33
2023/03/12 10:20:21;;;;;;;3.30;1.30;;;;;;;-128.00;-1.00;-1.00;97853;285;1003249;-33
2023/03/12 10:23:11;;;;;;;2.60;1.60;;;;;;;-128.00;-1.00;-1.00;97883;285;1003114;-29
2023/03/12 10:25:51;;;;;;;8.50;0.80;;;;;;;-128.00;-1.00;-1.00;97869;285;1003297;-33
2023/03/12 10:28:41;;;;;;;2.30;1.00;;;;;;;-128.00;-1.00;-1.00;97826;285;1003966;-31
2023/03/12 10:31:13;;;;;;;1.40;0.70;;;;;;;-128.00;-1.00;-1.00;97865;285;1003394;-34
2023/03/12 10:33:46;;;;;;;0.90;0.40;;;;;;;-128.00;-1.00;-1.00;97753;298;1003692;-33
2023/03/12 10:36:16;;;;;;;1.50;0.70;;;;;;;-128.00;-1.00;-1.00;97763;285;1003823;-31
2023/03/12 10:38:41;;;;;;;3.00;0.90;;;;;;;-128.00;-1.00;-1.00;97884;296;1003026;-35
2023/03/12 10:41:15;;;;;;;3.30;1.40;;;;;;;-128.00;-1.00;-1.00;97820;298;1003433;-33
2023/03/12 10:43:41;;;;;;;1.10;0.70;;;;;;;-128.00;-1.00;-1.00;97889;296;1003081;-33
2023/03/12 10:46:15;;;;;;;2.10;1.30;;;;;;;-128.00;-1.00;-1.00;97788;285;1003385;-30
2023/03/12 10:48:42;;;;;;;1.90;0.60;;;;;;;-128.00;-1.00;-1.00;97783;298;1003694;-35
2023/03/12 10:51:09;;;;;;;1.50;0.80;;;;;;;-128.00;-1.00;-1.00;97733;296;1003535;-31
2023/03/12 10:53:38;;;;;;;2.30;0.90;;;;;;;-128.00;-1.00;-1.00;97850;296;1003000;-34
2023/03/12 10:56:07;;;;;;;1.90;0.80;;;;;;;-128.00;-1.00;-1.00;97872;285;1002994;-35
2023/03/12 10:58:36;;;;;;;0.80;0.50;;;;;;;-128.00;-1.00;-1.00;97804;285;1003125;-33
2023/03/12 11:01:02;;;;;;;1.80;0.90;;;;;;;-128.00;-1.00;-1.00;97913;285;1004446;-32
2023/03/12 11:03:28;;;;;;;4.90;2.00;;;;;;;-128.00;-1.00;-1.00;98026;285;1003369;-30
2023/03/12 11:47:21;;;;;;;9.10;3.00;;;;;;;6.23;57.37;99032.39;100579;296;563209;-29
2023/03/12 11:49:56;;;;;;;0.60;0.30;;;;;;;6.37;56.54;99034.45;100772;294;521218;-33
2023/03/12 11:52:44;;;;;;;15.30;4.80;;;;;;;6.59;55.02;99029.99;100966;294;23792;-29
2023/03/12 11:55:16;;;;;;;1.10;0.60;;;;;;;7.29;50.52;99023.23;101114;294;25301;-29
2023/03/12 11:58:01;;;;;;;8.80;4.40;;;;;;;6.69;51.45;99018.98;101126;294;24067;-35
2023/03/12 12:00:40;;;;;;;41.10;10.50;;;;;;;6.74;49.60;99016.76;101145;285;26874;-29
2023/03/12 12:03:34;;;;;;;8.50;1.90;;;;;;;6.46;50.86;99008.40;101172;295;26987;-36
2023/03/12 12:06:09;;;;;;;6.20;2.00;;;;;;;6.48;52.40;99012.17;101043;294;25925;-33
2023/03/12 12:08:49;;;;;;;10.90;2.60;;;;;;;6.79;52.50;99011.06;101087;294;26872;-33
2023/03/12 12:11:35;;;;;;;8.40;4.30;;;;;;;6.91;50.27;99004.81;100988;295;22669;-30
2023/03/12 12:14:19;;;;;;;13.90;2.60;;;;;;;7.15;50.26;99005.48;101030;294;22729;-32
2023/03/12 12:17:00;;;;;;;10.30;2.00;;;;;;;7.18;51.54;99003.39;101109;294;26323;-31
2023/03/12 12:19:49;;;;;;;4.40;2.10;;;;;;;7.51;50.64;99009.86;101086;294;26971;-32
2023/03/12 12:22:44;;;;;;;3.60;0.90;;;;;;;7.28;51.86;98999.45;101100;296;22573;-33
2023/03/12 12:25:27;;;;;;;5.90;1.50;;;;;;;7.40;50.49;98999.31;100987;298;26868;-29
2023/03/12 12:28:17;;;;;;;1.40;0.70;;;;;;;7.72;47.37;99003.70;101070;294;24064;-36
2023/03/12 12:30:54;;;;;;;1.50;0.80;;;;;;;7.86;46.45;98992.25;101122;294;22770;-29
2023/03/12 12:33:44;;;;;;;8.20;0.90;;;;;;;7.51;46.99;98992.78;101069;294;22889;-33
2023/03/12 12:36:10;;;;;;;1.80;1.20;;;;;;;7.39;47.77;98991.39;101152;294;28033;-29
2023/03/12 12:38:39;;;;;;;1.40;0.70;;;;;;;7.20;49.08;98998.88;101103;294;22577;-29
2023/03/12 12:41:21;;;;;;;24.70;5.90;;;;;;;7.09;49.42;98995.95;101057;294;24135;-33
2023/03/12 12:43:48;;;;;;;12.90;3.10;;;;;;;6.97;50.10;98993.46;101105;294;26833;-32
2023/03/12 12:46:19;;;;;;;11.00;3.80;;;;;;;7.12;49.11;98990.02;101150;295;25308;-33
2023/03/12 12:49:02;;;;;;;4.70;1.90;;;;;;;6.62;50.99;99000.11;101106;295;25596;-34
2023/03/12 12:51:34;;;;;;;4.70;1.50;;;;;;;6.81;48.86;99004.17;101094;295;22915;-33
2023/03/12 12:54:23;;;;;;;0.80;0.40;;;;;;;6.24;49.86;99008.70;101178;295;26932;-32
2023/03/12 12:56:57;;;;;;;6.10;2.20;;;;;;;5.98;49.96;99014.20;101055;295;22674;-34
2023/03/12 12:59:33;;;;;;;3.30;1.00;;;;;;;6.23;50.28;99006.74;101126;295;26839;-29